sensor_id;sensor_type;location;lat;lon;timestamp;pressure;altitude;pressure_sealevel;temperature
81319;BMP280;74078;48.420;14.828;2024-02-21T00:00:40;93322.47;;;2.42
81319;BMP280;74078;48.420;14.828;2024-02-21T00:03:06;93327.47;;;2.35
81319;BMP280;74078;48.420;14.828;2024-02-21T00:05:32;93326.38;;;2.39
81319;BMP280;74078;48.420;14.828;2024-02-21T00:07:58;93313.91;;;2.50
81319;BMP280;74078;48.420;14.828;2024-02-21T00:10:23;93320.03;;;2.56
81319;BMP280;74078;48.420;14.828;2024-02-21T00:12:50;93319.31;;;2.56
81319;BMP280;74078;48.420;14.828;2024-02-21T00:15:15;93302.13;;;2.58
81319;BMP280;74078;48.420;14.828;2024-02-21T00:17:40;93318.22;;;2.57
81319;BMP280;74078;48.420;14.828;2024-02-21T00:20:06;93323.97;;;2.57
81319;BMP280;74078;48.420;14.828;2024-02-21T00:22:31;93312.88;;;2.58
81319;BMP280;74078;48.420;14.828;2024-02-21T00:24:58;93313.25;;;2.71
81319;BMP280;74078;48.420;14.828;2024-02-21T00:27:23;93308.28;;;2.81
81319;BMP280;74078;48.420;14.828;2024-02-21T00:29:49;93315.47;;;2.97
81319;BMP280;74078;48.420;14.828;2024-02-21T00:32:14;93309.38;;;2.91
81319;BMP280;74078;48.420;14.828;2024-02-21T00:34:39;93307.91;;;2.86
81319;BMP280;74078;48.420;14.828;2024-02-21T00:37:04;93308.28;;;2.81
81319;BMP280;74078;48.420;14.828;2024-02-21T00:39:30;93307.53;;;2.77
81319;BMP280;74078;48.420;14.828;2024-02-21T00:41:55;93301.41;;;2.71
81319;BMP280;74078;48.420;14.828;2024-02-21T00:44:20;93301.78;;;2.66
81319;BMP280;74078;48.420;14.828;2024-02-21T00:46:45;93296.38;;;2.64
81319;BMP280;74078;48.420;14.828;2024-02-21T00:49:12;93293.16;;;2.71
81319;BMP280;74078;48.420;14.828;2024-02-21T00:51:37;93283.09;;;2.67
81319;BMP280;74078;48.420;14.828;2024-02-21T00:54:02;93283.81;;;2.64
81319;BMP280;74078;48.420;14.828;2024-02-21T00:56:27;93274.50;;;2.61
81319;BMP280;74078;48.420;14.828;2024-02-21T00:58:53;93275.97;;;2.62
81319;BMP280;74078;48.420;14.828;2024-02-21T01:01:24;93265.53;;;2.57
81319;BMP280;74078;48.420;14.828;2024-02-21T01:03:50;93266.22;;;2.50
81319;BMP280;74078;48.420;14.828;2024-02-21T01:06:18;93254.75;;;2.49
81319;BMP280;74078;48.420;14.828;2024-02-21T01:08:43;93251.16;;;2.50
81319;BMP280;74078;48.420;14.828;2024-02-21T01:11:08;93245.78;;;2.48
81319;BMP280;74078;48.420;14.828;2024-02-21T01:13:33;93242.56;;;2.51
81319;BMP280;74078;48.420;14.828;2024-02-21T01:15:59;93241.13;;;2.50
81319;BMP280;74078;48.420;14.828;2024-02-21T01:18:24;93239.34;;;2.54
81319;BMP280;74078;48.420;14.828;2024-02-21T01:20:49;93237.53;;;2.51
81319;BMP280;74078;48.420;14.828;2024-02-21T01:23:14;93243.66;;;2.54
81319;BMP280;74078;48.420;14.828;2024-02-21T01:25:39;93240.78;;;2.55
81319;BMP280;74078;48.420;14.828;2024-02-21T01:28:05;93239.34;;;2.54
81319;BMP280;74078;48.420;14.828;2024-02-21T01:30:30;93242.94;;;2.60
81319;BMP280;74078;48.420;14.828;2024-02-21T01:32:55;93242.22;;;2.63
81319;BMP280;74078;48.420;14.828;2024-02-21T01:35:20;93231.84;;;2.61
81319;BMP280;74078;48.420;14.828;2024-02-21T01:37:46;93236.84;;;2.65
81319;BMP280;74078;48.420;14.828;2024-02-21T01:40:11;93233.25;;;2.52
81319;BMP280;74078;48.420;14.828;2024-02-21T01:42:39;93235.06;;;2.55
81319;BMP280;74078;48.420;14.828;2024-02-21T01:45:06;93226.44;;;2.52
81319;BMP280;74078;48.420;14.828;2024-02-21T01:47:31;93233.25;;;2.55
81319;BMP280;74078;48.420;14.828;2024-02-21T01:49:56;93224.66;;;2.56
81319;BMP280;74078;48.420;14.828;2024-02-21T01:52:21;93226.09;;;2.57
81319;BMP280;74078;48.420;14.828;2024-02-21T01:54:47;93224.66;;;2.56
81319;BMP280;74078;48.420;14.828;2024-02-21T01:57:12;93224.97;;;2.51
81319;BMP280;74078;48.420;14.828;2024-02-21T01:59:38;93221.38;;;2.45
81319;BMP280;74078;48.420;14.828;2024-02-21T02:02:03;93228.19;;;2.41
81319;BMP280;74078;48.420;14.828;2024-02-21T02:04:29;93231.75;;;2.40
81319;BMP280;74078;48.420;14.828;2024-02-21T02:06:54;93226.41;;;2.45
81319;BMP280;74078;48.420;14.828;2024-02-21T02:09:19;93232.50;;;2.51
81319;BMP280;74078;48.420;14.828;2024-02-21T02:11:44;93224.28;;;2.54
81319;BMP280;74078;48.420;14.828;2024-02-21T02:14:10;93237.94;;;2.60
81319;BMP280;74078;48.420;14.828;2024-02-21T02:16:35;93229.31;;;2.54
81319;BMP280;74078;48.420;14.828;2024-02-21T02:19:00;93219.28;;;2.58
81319;BMP280;74078;48.420;14.828;2024-02-21T02:21:29;93225.75;;;2.69
81319;BMP280;74078;48.420;14.828;2024-02-21T02:23:54;93218.94;;;2.77
81319;BMP280;74078;48.420;14.828;2024-02-21T02:26:20;93223.97;;;2.73
81319;BMP280;74078;48.420;14.828;2024-02-21T02:28:45;93224.31;;;2.61
81319;BMP280;74078;48.420;14.828;2024-02-21T02:31:10;93220.00;;;2.69
81319;BMP280;74078;48.420;14.828;2024-02-21T02:33:36;93213.53;;;2.68
81319;BMP280;74078;48.420;14.828;2024-02-21T02:36:01;93217.81;;;2.50
81319;BMP280;74078;48.420;14.828;2024-02-21T02:38:26;93203.47;;;2.46
81319;BMP280;74078;48.420;14.828;2024-02-21T02:40:52;93203.13;;;2.55
81319;BMP280;74078;48.420;14.828;2024-02-21T02:43:17;93204.91;;;2.51
81319;BMP280;74078;48.420;14.828;2024-02-21T02:45:42;93202.44;;;2.58
81319;BMP280;74078;48.420;14.828;2024-02-21T02:48:07;93189.88;;;2.58
81319;BMP280;74078;48.420;14.828;2024-02-21T02:50:32;93191.28;;;2.63
81319;BMP280;74078;48.420;14.828;2024-02-21T02:52:58;93190.22;;;2.67
81319;BMP280;74078;48.420;14.828;2024-02-21T02:55:23;93196.34;;;2.66
81319;BMP280;74078;48.420;14.828;2024-02-21T02:57:48;93187.38;;;2.79
81319;BMP280;74078;48.420;14.828;2024-02-21T03:00:14;93175.56;;;2.83
81319;BMP280;74078;48.420;14.828;2024-02-21T03:02:40;93178.06;;;2.87
81319;BMP280;74078;48.420;14.828;2024-02-21T03:05:39;93175.56;;;2.83
81319;BMP280;74078;48.420;14.828;2024-02-21T03:07:57;93180.91;;;2.75
81319;BMP280;74078;48.420;14.828;2024-02-21T03:10:22;93173.75;;;2.66
81319;BMP280;74078;48.420;14.828;2024-02-21T03:12:47;93171.59;;;2.51
81319;BMP280;74078;48.420;14.828;2024-02-21T03:15:13;93173.38;;;2.46
81319;BMP280;74078;48.420;14.828;2024-02-21T03:17:38;93173.72;;;2.48
81319;BMP280;74078;48.420;14.828;2024-02-21T03:20:04;93170.88;;;2.54
81319;BMP280;74078;48.420;14.828;2024-02-21T03:22:36;93173.38;;;2.50
81319;BMP280;74078;48.420;14.828;2024-02-21T03:25:01;93167.94;;;2.34
81319;BMP280;74078;48.420;14.828;2024-02-21T03:27:27;93162.94;;;2.27
81319;BMP280;74078;48.420;14.828;2024-02-21T03:29:52;93166.16;;;2.31
81319;BMP280;74078;48.420;14.828;2024-02-21T03:32:17;93169.00;;;2.33
81319;BMP280;74078;48.420;14.828;2024-02-21T03:34:42;93170.44;;;2.20
81319;BMP280;74078;48.420;14.828;2024-02-21T03:37:07;93161.47;;;2.29
81319;BMP280;74078;48.420;14.828;2024-02-21T03:39:33;93164.00;;;2.33
81319;BMP280;74078;48.420;14.828;2024-02-21T03:41:58;93164.72;;;2.23
81319;BMP280;74078;48.420;14.828;2024-02-21T03:44:26;93164.31;;;2.14
81319;BMP280;74078;48.420;14.828;2024-02-21T03:46:51;93166.84;;;2.21
81319;BMP280;74078;48.420;14.828;2024-02-21T03:49:17;93167.94;;;2.30
81319;BMP280;74078;48.420;14.828;2024-02-21T03:51:43;93162.94;;;2.23
81319;BMP280;74078;48.420;14.828;2024-02-21T03:54:08;93165.06;;;2.21
81319;BMP280;74078;48.420;14.828;2024-02-21T03:56:36;93164.72;;;2.37
81319;BMP280;74078;48.420;14.828;2024-02-21T03:59:02;93164.06;;;2.47
81319;BMP280;74078;48.420;14.828;2024-02-21T04:01:27;93162.22;;;2.44
81319;BMP280;74078;48.420;14.828;2024-02-21T04:03:52;93159.75;;;2.65
81319;BMP280;74078;48.420;14.828;2024-02-21T04:06:17;93166.91;;;2.70
81319;BMP280;74078;48.420;14.828;2024-02-21T04:08:43;93161.56;;;2.68
81319;BMP280;74078;48.420;14.828;2024-02-21T04:11:10;93162.28;;;2.76
81319;BMP280;74078;48.420;14.828;2024-02-21T04:13:35;93151.91;;;2.84
81319;BMP280;74078;48.420;14.828;2024-02-21T04:16:00;93154.03;;;2.75
81319;BMP280;74078;48.420;14.828;2024-02-21T04:18:26;93154.41;;;2.77
81319;BMP280;74078;48.420;14.828;2024-02-21T04:20:51;93150.41;;;2.94
81319;BMP280;74078;48.420;14.828;2024-02-21T04:23:16;93146.50;;;3.04
81319;BMP280;74078;48.420;14.828;2024-02-21T04:25:42;93150.44;;;2.69
81319;BMP280;74078;48.420;14.828;2024-02-21T04:28:07;93149.00;;;2.54
81319;BMP280;74078;48.420;14.828;2024-02-21T04:30:32;93145.41;;;2.73
81319;BMP280;74078;48.420;14.828;2024-02-21T04:32:57;93143.25;;;2.71
81319;BMP280;74078;48.420;14.828;2024-02-21T04:35:22;93128.94;;;2.89
81319;BMP280;74078;48.420;14.828;2024-02-21T04:37:48;93131.06;;;3.02
81319;BMP280;74078;48.420;14.828;2024-02-21T04:40:14;93135.00;;;3.03
81319;BMP280;74078;48.420;14.828;2024-02-21T04:42:39;93133.94;;;3.00
81319;BMP280;74078;48.420;14.828;2024-02-21T04:45:05;93130.34;;;2.90
81319;BMP280;74078;48.420;14.828;2024-02-21T04:47:30;93141.47;;;2.54
81319;BMP280;74078;48.420;14.828;2024-02-21T04:49:55;93139.66;;;2.47
81319;BMP280;74078;48.420;14.828;2024-02-21T04:52:21;93145.44;;;2.59
81319;BMP280;74078;48.420;14.828;2024-02-21T04:54:46;93131.75;;;2.28
81319;BMP280;74078;48.420;14.828;2024-02-21T04:57:11;93134.63;;;2.40
81319;BMP280;74078;48.420;14.828;2024-02-21T04:59:41;93131.03;;;2.34
81319;BMP280;74078;48.420;14.828;2024-02-21T05:02:07;93126.75;;;2.49
81319;BMP280;74078;48.420;14.828;2024-02-21T05:04:32;93126.75;;;2.42
81319;BMP280;74078;48.420;14.828;2024-02-21T05:06:57;93124.59;;;2.37
81319;BMP280;74078;48.420;14.828;2024-02-21T05:09:22;93123.16;;;2.25
81319;BMP280;74078;48.420;14.828;2024-02-21T05:11:48;93129.59;;;2.30
81319;BMP280;74078;48.420;14.828;2024-02-21T05:14:13;93117.78;;;2.23
81319;BMP280;74078;48.420;14.828;2024-02-21T05:16:38;93116.34;;;2.26
81319;BMP280;74078;48.420;14.828;2024-02-21T05:19:03;93113.13;;;2.22
81319;BMP280;74078;48.420;14.828;2024-02-21T05:21:29;93112.03;;;2.19
81319;BMP280;74078;48.420;14.828;2024-02-21T05:23:54;93109.16;;;2.17
81319;BMP280;74078;48.420;14.828;2024-02-21T05:26:20;93110.59;;;2.25
81319;BMP280;74078;48.420;14.828;2024-02-21T05:28:46;93110.25;;;2.20
81319;BMP280;74078;48.420;14.828;2024-02-21T05:31:11;93114.56;;;2.26
81319;BMP280;74078;48.420;14.828;2024-02-21T05:33:36;93111.31;;;2.22
81319;BMP280;74078;48.420;14.828;2024-02-21T05:36:01;93115.28;;;2.23
81319;BMP280;74078;48.420;14.828;2024-02-21T05:38:27;93117.41;;;2.32
81319;BMP280;74078;48.420;14.828;2024-02-21T05:40:52;93109.53;;;2.33
81319;BMP280;74078;48.420;14.828;2024-02-21T05:43:18;93101.63;;;2.21
81319;BMP280;74078;48.420;14.828;2024-02-21T05:45:43;93100.56;;;2.22
81319;BMP280;74078;48.420;14.828;2024-02-21T05:48:08;93093.75;;;2.36
81319;BMP280;74078;48.420;14.828;2024-02-21T05:50:33;93100.56;;;2.32
81319;BMP280;74078;48.420;14.828;2024-02-21T05:52:59;93089.47;;;2.37
81319;BMP280;74078;48.420;14.828;2024-02-21T05:55:24;93099.50;;;2.37
81319;BMP280;74078;48.420;14.828;2024-02-21T05:57:49;93088.75;;;2.40
81319;BMP280;74078;48.420;14.828;2024-02-21T06:00:15;93098.06;;;2.36
81319;BMP280;74078;48.420;14.828;2024-02-21T06:02:40;93093.03;;;2.36
81319;BMP280;74078;48.420;14.828;2024-02-21T06:05:06;93081.59;;;2.35
81319;BMP280;74078;48.420;14.828;2024-02-21T06:07:34;93086.94;;;2.37
81319;BMP280;74078;48.420;14.828;2024-02-21T06:10:01;93088.75;;;2.40
81319;BMP280;74078;48.420;14.828;2024-02-21T06:12:26;93088.75;;;2.43
81319;BMP280;74078;48.420;14.828;2024-02-21T06:14:51;93090.91;;;2.45
81319;BMP280;74078;48.420;14.828;2024-02-21T06:17:17;93088.78;;;2.47
81319;BMP280;74078;48.420;14.828;2024-02-21T06:19:42;93089.13;;;2.49
81319;BMP280;74078;48.420;14.828;2024-02-21T06:22:08;93082.66;;;2.48
81319;BMP280;74078;48.420;14.828;2024-02-21T06:24:34;93085.19;;;2.52
81319;BMP280;74078;48.420;14.828;2024-02-21T06:26:59;93078.03;;;2.57
81319;BMP280;74078;48.420;14.828;2024-02-21T06:29:24;93080.53;;;2.50
81319;BMP280;74078;48.420;14.828;2024-02-21T06:31:49;93084.47;;;2.58
81319;BMP280;74078;48.420;14.828;2024-02-21T06:34:15;93085.53;;;2.64
81319;BMP280;74078;48.420;14.828;2024-02-21T06:36:40;93092.34;;;2.50
81319;BMP280;74078;48.420;14.828;2024-02-21T06:39:05;93096.31;;;2.61
81319;BMP280;74078;48.420;14.828;2024-02-21T06:41:32;93088.03;;;2.64
81319;BMP280;74078;48.420;14.828;2024-02-21T06:43:59;93088.75;;;2.68
81319;BMP280;74078;48.420;14.828;2024-02-21T06:46:24;93086.59;;;2.67
81319;BMP280;74078;48.420;14.828;2024-02-21T06:48:50;93093.06;;;2.71
81319;BMP280;74078;48.420;14.828;2024-02-21T06:51:15;93102.03;;;2.86
81319;BMP280;74078;48.420;14.828;2024-02-21T06:53:41;93097.38;;;2.88
81319;BMP280;74078;48.420;14.828;2024-02-21T06:56:06;93093.75;;;3.11
81319;BMP280;74078;48.420;14.828;2024-02-21T06:58:31;93091.25;;;3.04
81319;BMP280;74078;48.420;14.828;2024-02-21T07:00:57;93094.09;;;3.09
81319;BMP280;74078;48.420;14.828;2024-02-21T07:03:22;93094.81;;;2.99
81319;BMP280;74078;48.420;14.828;2024-02-21T07:05:49;93090.88;;;2.94
81319;BMP280;74078;48.420;14.828;2024-02-21T07:08:14;93091.59;;;2.98
81319;BMP280;74078;48.420;14.828;2024-02-21T07:10:39;93090.53;;;2.99
81319;BMP280;74078;48.420;14.828;2024-02-21T07:13:05;93091.59;;;3.06
81319;BMP280;74078;48.420;14.828;2024-02-21T07:15:30;93088.72;;;3.11
81319;BMP280;74078;48.420;14.828;2024-02-21T07:17:56;93081.53;;;3.02
81319;BMP280;74078;48.420;14.828;2024-02-21T07:20:21;93082.97;;;3.10
81319;BMP280;74078;48.420;14.828;2024-02-21T07:22:46;93089.78;;;3.20
81319;BMP280;74078;48.420;14.828;2024-02-21T07:25:11;93090.81;;;3.23
81319;BMP280;74078;48.420;14.828;2024-02-21T07:27:36;93078.94;;;3.37
81319;BMP280;74078;48.420;14.828;2024-02-21T07:30:02;93076.44;;;3.37
81319;BMP280;74078;48.420;14.828;2024-02-21T07:32:27;93083.59;;;3.46
81319;BMP280;74078;48.420;14.828;2024-02-21T07:34:53;93086.44;;;3.48
81319;BMP280;74078;48.420;14.828;2024-02-21T07:37:18;93080.00;;;3.40
81319;BMP280;74078;48.420;14.828;2024-02-21T07:39:43;93078.56;;;3.46
81319;BMP280;74078;48.420;14.828;2024-02-21T07:42:08;93080.69;;;3.51
81319;BMP280;74078;48.420;14.828;2024-02-21T07:44:34;93082.06;;;3.70
81319;BMP280;74078;48.420;14.828;2024-02-21T07:46:59;93077.06;;;3.63
81319;BMP280;74078;48.420;14.828;2024-02-21T07:49:25;93075.94;;;3.71
81319;BMP280;74078;48.420;14.828;2024-02-21T07:51:50;93078.03;;;3.79
81319;BMP280;74078;48.420;14.828;2024-02-21T07:54:15;93071.13;;;3.94
81319;BMP280;74078;48.420;14.828;2024-02-21T07:56:40;93071.56;;;3.78
81319;BMP280;74078;48.420;14.828;2024-02-21T07:59:06;93070.53;;;3.72
81319;BMP280;74078;48.420;14.828;2024-02-21T08:01:31;93061.97;;;3.66
81319;BMP280;74078;48.420;14.828;2024-02-21T08:03:56;93065.56;;;3.65
81319;BMP280;74078;48.420;14.828;2024-02-21T08:06:21;93061.25;;;3.66
81319;BMP280;74078;48.420;14.828;2024-02-21T08:08:47;93074.88;;;3.68
81319;BMP280;74078;48.420;14.828;2024-02-21T08:11:12;93063.78;;;3.51
81319;BMP280;74078;48.420;14.828;2024-02-21T08:13:37;93067.34;;;3.65
81319;BMP280;74078;48.420;14.828;2024-02-21T08:16:03;93071.91;;;3.87
81319;BMP280;74078;48.420;14.828;2024-02-21T08:18:28;93067.59;;;3.88
81319;BMP280;74078;48.420;14.828;2024-02-21T08:20:53;93068.16;;;4.13
81319;BMP280;74078;48.420;14.828;2024-02-21T08:23:19;93068.13;;;4.20
81319;BMP280;74078;48.420;14.828;2024-02-21T08:25:44;93057.44;;;4.02
81319;BMP280;74078;48.420;14.828;2024-02-21T08:28:09;93060.19;;;4.22
81319;BMP280;74078;48.420;14.828;2024-02-21T08:30:34;93059.22;;;4.09
81319;BMP280;74078;48.420;14.828;2024-02-21T08:33:00;93064.47;;;4.28
81319;BMP280;74078;48.420;14.828;2024-02-21T08:35:25;93069.75;;;4.41
81319;BMP280;74078;48.420;14.828;2024-02-21T08:37:50;93058.38;;;4.22
81319;BMP280;74078;48.420;14.828;2024-02-21T08:40:15;93055.81;;;4.33
81319;BMP280;74078;48.420;14.828;2024-02-21T08:42:46;93050.88;;;4.63
81319;BMP280;74078;48.420;14.828;2024-02-21T08:45:11;93052.28;;;4.64
81319;BMP280;74078;48.420;14.828;2024-02-21T08:47:38;93041.84;;;4.69
81319;BMP280;74078;48.420;14.828;2024-02-21T08:50:04;93041.34;;;4.81
81319;BMP280;74078;48.420;14.828;2024-02-21T08:52:30;93053.56;;;4.83
81319;BMP280;74078;48.420;14.828;2024-02-21T08:54:56;93032.44;;;4.73
81319;BMP280;74078;48.420;14.828;2024-02-21T08:57:21;93033.50;;;4.72
81319;BMP280;74078;48.420;14.828;2024-02-21T08:59:46;93035.94;;;4.83
81319;BMP280;74078;48.420;14.828;2024-02-21T09:02:12;93028.94;;;5.01
81319;BMP280;74078;48.420;14.828;2024-02-21T09:04:37;93026.09;;;4.95
81319;BMP280;74078;48.420;14.828;2024-02-21T09:07:02;93030.38;;;4.98
81319;BMP280;74078;48.420;14.828;2024-02-21T09:09:28;93016.72;;;5.26
81319;BMP280;74078;48.420;14.828;2024-02-21T09:11:53;93024.66;;;5.28
81319;BMP280;74078;48.420;14.828;2024-02-21T09:14:19;93024.22;;;5.33
81319;BMP280;74078;48.420;14.828;2024-02-21T09:16:44;93020.47;;;5.15
81319;BMP280;74078;48.420;14.828;2024-02-21T09:19:09;93011.78;;;5.19
81319;BMP280;74078;48.420;14.828;2024-02-21T09:21:36;93017.63;;;5.13
81319;BMP280;74078;48.420;14.828;2024-02-21T09:24:02;93015.25;;;5.32
81319;BMP280;74078;48.420;14.828;2024-02-21T09:26:28;93018.44;;;5.02
81319;BMP280;74078;48.420;14.828;2024-02-21T09:28:53;93019.34;;;5.19
81319;BMP280;74078;48.420;14.828;2024-02-21T09:31:18;93029.25;;;5.03
81319;BMP280;74078;48.420;14.828;2024-02-21T09:33:44;93021.38;;;5.01
81319;BMP280;74078;48.420;14.828;2024-02-21T09:36:10;93018.72;;;5.12
81319;BMP280;74078;48.420;14.828;2024-02-21T09:38:35;93026.38;;;5.04
81319;BMP280;74078;48.420;14.828;2024-02-21T09:41:17;93008.38;;;5.33
81319;BMP280;74078;48.420;14.828;2024-02-21T09:43:43;93020.94;;;5.06
81319;BMP280;74078;48.420;14.828;2024-02-21T09:46:12;93015.19;;;5.36
81319;BMP280;74078;48.420;14.828;2024-02-21T09:48:42;93013.94;;;5.21
81319;BMP280;74078;48.420;14.828;2024-02-21T09:51:10;93018.59;;;5.22
81319;BMP280;74078;48.420;14.828;2024-02-21T09:53:39;93023.06;;;5.07
81319;BMP280;74078;48.420;14.828;2024-02-21T09:56:07;93014.09;;;5.06
81319;BMP280;74078;48.420;14.828;2024-02-21T09:58:32;93024.19;;;5.06
81319;BMP280;74078;48.420;14.828;2024-02-21T10:00:59;93015.44;;;5.15
81319;BMP280;74078;48.420;14.828;2024-02-21T10:03:25;93017.56;;;5.20
81319;BMP280;74078;48.420;14.828;2024-02-21T10:05:50;93015.44;;;5.15
81319;BMP280;74078;48.420;14.828;2024-02-21T10:08:15;93024.69;;;5.25
81319;BMP280;74078;48.420;14.828;2024-02-21T10:10:44;93017.50;;;5.23
81319;BMP280;74078;48.420;14.828;2024-02-21T10:13:10;93022.41;;;5.34
81319;BMP280;74078;48.420;14.828;2024-02-21T10:15:36;93029.34;;;5.26
81319;BMP280;74078;48.420;14.828;2024-02-21T10:18:02;93022.97;;;5.45
81319;BMP280;74078;48.420;14.828;2024-02-21T10:20:31;93018.63;;;5.49
81319;BMP280;74078;48.420;14.828;2024-02-21T10:23:03;93014.69;;;5.48
81319;BMP280;74078;48.420;14.828;2024-02-21T10:25:32;93008.69;;;5.38
81319;BMP280;74078;48.420;14.828;2024-02-21T10:27:58;93003.69;;;5.35
81319;BMP280;74078;48.420;14.828;2024-02-21T10:30:23;93000.44;;;5.61
81319;BMP280;74078;48.420;14.828;2024-02-21T10:32:51;93002.06;;;5.48
81319;BMP280;74078;48.420;14.828;2024-02-21T10:35:30;92990.66;;;5.90
81319;BMP280;74078;48.420;14.828;2024-02-21T10:37:56;92988.75;;;5.74
81319;BMP280;74078;48.420;14.828;2024-02-21T10:40:23;92989.47;;;5.71
81319;BMP280;74078;48.420;14.828;2024-02-21T10:42:48;92991.47;;;6.06
81319;BMP280;74078;48.420;14.828;2024-02-21T10:45:15;92990.75;;;6.09
81319;BMP280;74078;48.420;14.828;2024-02-21T10:47:41;92992.03;;;5.94
81319;BMP280;74078;48.420;14.828;2024-02-21T10:50:08;92979.38;;;5.98
81319;BMP280;74078;48.420;14.828;2024-02-21T10:57:27;92946.03;;;6.30
81319;BMP280;74078;48.420;14.828;2024-02-21T10:59:53;92941.03;;;6.85
81319;BMP280;74078;48.420;14.828;2024-02-21T11:02:19;92945.41;;;6.65
81319;BMP280;74078;48.420;14.828;2024-02-21T11:04:45;92931.81;;;6.79
81319;BMP280;74078;48.420;14.828;2024-02-21T11:07:11;92933.78;;;6.87
81319;BMP280;74078;48.420;14.828;2024-02-21T11:09:36;92935.16;;;7.08
81319;BMP280;74078;48.420;14.828;2024-02-21T11:12:04;92938.38;;;6.92
81319;BMP280;74078;48.420;14.828;2024-02-21T11:14:29;92940.56;;;7.10
81319;BMP280;74078;48.420;14.828;2024-02-21T11:17:01;92934.72;;;7.61
81319;BMP280;74078;48.420;14.828;2024-02-21T11:19:26;92921.22;;;8.67
81319;BMP280;74078;48.420;14.828;2024-02-21T11:21:52;92906.19;;;8.18
81319;BMP280;74078;48.420;14.828;2024-02-21T11:26:53;92885.63;;;8.95
81319;BMP280;74078;48.420;14.828;2024-02-21T11:29:25;92891.72;;;8.98
81319;BMP280;74078;48.420;14.828;2024-02-21T11:31:53;92895.63;;;9.37
81319;BMP280;74078;48.420;14.828;2024-02-21T11:34:19;92896.00;;;9.82
81319;BMP280;74078;48.420;14.828;2024-02-21T11:36:48;92882.97;;;8.99
81319;BMP280;74078;48.420;14.828;2024-02-21T11:41:47;92886.00;;;7.73
81319;BMP280;74078;48.420;14.828;2024-02-21T11:44:12;92879.94;;;7.55
81319;BMP280;74078;48.420;14.828;2024-02-21T11:46:37;92877.78;;;7.98
81319;BMP280;74078;48.420;14.828;2024-02-21T11:49:03;92892.03;;;7.63
81319;BMP280;74078;48.420;14.828;2024-02-21T11:51:28;92876.81;;;8.37
81319;BMP280;74078;48.420;14.828;2024-02-21T11:53:53;92881.41;;;8.13
81319;BMP280;74078;48.420;14.828;2024-02-21T11:56:19;92875.09;;;8.97
81319;BMP280;74078;48.420;14.828;2024-02-21T11:58:45;92892.38;;;8.07
81319;BMP280;74078;48.420;14.828;2024-02-21T12:01:11;92872.63;;;7.73
81319;BMP280;74078;48.420;14.828;2024-02-21T12:03:36;92878.88;;;7.68
81319;BMP280;74078;48.420;14.828;2024-02-21T12:06:01;92888.00;;;7.50
81319;BMP280;74078;48.420;14.828;2024-02-21T12:08:28;92870.22;;;7.37
81319;BMP280;74078;48.420;14.828;2024-02-21T12:10:54;92870.81;;;7.73
81319;BMP280;74078;48.420;14.828;2024-02-21T12:13:22;92864.31;;;7.44
81319;BMP280;74078;48.420;14.828;2024-02-21T12:15:47;92859.69;;;7.71
81319;BMP280;74078;48.420;14.828;2024-02-21T12:18:14;92856.72;;;7.44
81319;BMP280;74078;48.420;14.828;2024-02-21T12:20:40;92857.75;;;7.75
81319;BMP280;74078;48.420;14.828;2024-02-21T12:23:08;92852.69;;;7.75
81319;BMP280;74078;48.420;14.828;2024-02-21T12:25:33;92840.25;;;8.09
81319;BMP280;74078;48.420;14.828;2024-02-21T12:27:59;92844.03;;;7.88
81319;BMP280;74078;48.420;14.828;2024-02-21T12:30:25;92852.75;;;8.29
81319;BMP280;74078;48.420;14.828;2024-02-21T12:32:51;92840.75;;;8.17
81319;BMP280;74078;48.420;14.828;2024-02-21T12:35:16;92825.53;;;8.71
81319;BMP280;74078;48.420;14.828;2024-02-21T12:37:42;92842.06;;;10.52
81319;BMP280;74078;48.420;14.828;2024-02-21T12:40:08;92864.78;;;10.96
81319;BMP280;74078;48.420;14.828;2024-02-21T12:42:34;92865.97;;;11.49
81319;BMP280;74078;48.420;14.828;2024-02-21T12:44:59;92884.13;;;12.62
81319;BMP280;74078;48.420;14.828;2024-02-21T12:47:25;92895.25;;;12.50
81319;BMP280;74078;48.420;14.828;2024-02-21T12:49:51;92893.84;;;11.62
81319;BMP280;74078;48.420;14.828;2024-02-21T12:52:17;92912.03;;;12.33
81319;BMP280;74078;48.420;14.828;2024-02-21T12:54:42;92918.59;;;12.57
81319;BMP280;74078;48.420;14.828;2024-02-21T12:57:08;92844.34;;;11.17
81319;BMP280;74078;48.420;14.828;2024-02-21T12:59:33;92804.53;;;10.25
81319;BMP280;74078;48.420;14.828;2024-02-21T13:01:58;92785.75;;;9.92
81319;BMP280;74078;48.420;14.828;2024-02-21T13:04:24;92773.75;;;9.93
81319;BMP280;74078;48.420;14.828;2024-02-21T13:06:49;92777.75;;;10.03
81319;BMP280;74078;48.420;14.828;2024-02-21T13:09:14;92764.00;;;10.22
81319;BMP280;74078;48.420;14.828;2024-02-21T13:11:40;92759.03;;;9.88
81319;BMP280;74078;48.420;14.828;2024-02-21T13:14:06;92757.97;;;9.45
81319;BMP280;74078;48.420;14.828;2024-02-21T13:16:31;92788.44;;;10.68
81319;BMP280;74078;48.420;14.828;2024-02-21T13:18:56;92770.38;;;11.48
81319;BMP280;74078;48.420;14.828;2024-02-21T13:21:22;92866.59;;;12.64
81319;BMP280;74078;48.420;14.828;2024-02-21T13:23:47;92882.25;;;14.59
81319;BMP280;74078;48.420;14.828;2024-02-21T13:26:12;92873.00;;;15.74
81319;BMP280;74078;48.420;14.828;2024-02-21T13:28:38;92871.22;;;16.16
81319;BMP280;74078;48.420;14.828;2024-02-21T13:31:03;92861.75;;;15.91
81319;BMP280;74078;48.420;14.828;2024-02-21T13:33:28;92856.06;;;17.14
81319;BMP280;74078;48.420;14.828;2024-02-21T13:35:54;92856.84;;;16.24
81319;BMP280;74078;48.420;14.828;2024-02-21T13:38:19;92854.47;;;18.00
81319;BMP280;74078;48.420;14.828;2024-02-21T13:40:44;92861.97;;;17.59
81319;BMP280;74078;48.420;14.828;2024-02-21T13:43:10;92854.47;;;18.00
81319;BMP280;74078;48.420;14.828;2024-02-21T13:45:35;92854.84;;;19.76
81319;BMP280;74078;48.420;14.828;2024-02-21T13:48:00;92864.22;;;20.27
81319;BMP280;74078;48.420;14.828;2024-02-21T13:50:32;92851.03;;;19.52
81319;BMP280;74078;48.420;14.828;2024-02-21T13:52:57;92857.44;;;20.67
81319;BMP280;74078;48.420;14.828;2024-02-21T13:55:23;92861.84;;;21.54
81319;BMP280;74078;48.420;14.828;2024-02-21T13:57:51;92849.41;;;22.23
81319;BMP280;74078;48.420;14.828;2024-02-21T14:00:16;92841.75;;;21.47
81319;BMP280;74078;48.420;14.828;2024-02-21T14:02:43;92826.63;;;19.53
81319;BMP280;74078;48.420;14.828;2024-02-21T14:05:08;92824.94;;;18.34
81319;BMP280;74078;48.420;14.828;2024-02-21T14:07:34;92800.19;;;19.47